createdAt,value
2018-06-09T00:00:18.915Z,1010.75
2018-06-09T00:01:18.891Z,1010.74
2018-06-09T00:02:18.872Z,1010.74
2018-06-09T00:03:18.851Z,1010.74
2018-06-09T00:04:18.829Z,1010.76
2018-06-09T00:05:18.809Z,1010.72
2018-06-09T00:06:18.790Z,1010.70
2018-06-09T00:07:18.767Z,1010.72
2018-06-09T00:08:18.747Z,1010.69
2018-06-09T00:09:18.725Z,1010.67
2018-06-09T00:10:18.709Z,1010.69
2018-06-09T00:11:18.685Z,1010.67
2018-06-09T00:12:18.666Z,1010.71
2018-06-09T00:13:18.647Z,1010.74
2018-06-09T00:14:18.622Z,1010.75
2018-06-09T00:15:18.632Z,1010.75
2018-06-09T00:16:18.785Z,1010.74
2018-06-09T00:17:18.763Z,1010.70
2018-06-09T00:18:18.539Z,1010.72
2018-06-09T00:20:03.496Z,1010.66
2018-06-09T00:21:00.651Z,1010.64
2018-06-09T00:22:00.833Z,1010.61
2018-06-09T00:23:00.610Z,1010.62
2018-06-09T00:24:00.617Z,1010.61
2018-06-09T00:25:00.769Z,1010.61
2018-06-09T00:26:00.547Z,1010.60
2018-06-09T00:27:00.528Z,1010.59
2018-06-09T00:28:00.509Z,1010.58
2018-06-09T00:29:00.485Z,1010.61
2018-06-09T00:30:00.463Z,1010.60
2018-06-09T00:31:00.443Z,1010.60
2018-06-09T00:32:00.421Z,1010.59
2018-06-09T00:33:00.401Z,1010.63
2018-06-09T00:34:00.379Z,1010.59
2018-06-09T00:35:00.359Z,1010.57
2018-06-09T00:36:00.339Z,1010.56
2018-06-09T00:37:00.317Z,1010.59
2018-06-09T00:38:00.296Z,1010.60
2018-06-09T00:39:00.275Z,1010.64
2018-06-09T00:40:00.257Z,1010.61
2018-06-09T00:41:00.238Z,1010.64
2018-06-09T00:42:00.212Z,1010.65
2018-06-09T00:43:00.192Z,1010.66
2018-06-09T00:44:00.173Z,1010.63
2018-06-09T00:45:00.149Z,1010.63
2018-06-09T00:46:00.132Z,1010.67
2018-06-09T00:47:00.108Z,1010.64
2018-06-09T00:48:00.088Z,1010.64
2018-06-09T00:49:00.070Z,1010.63
2018-06-09T00:50:00.051Z,1010.63
2018-06-09T00:51:00.027Z,1010.64
2018-06-09T00:52:00.153Z,1010.63
2018-06-09T00:52:59.981Z,1010.65
2018-06-09T00:53:59.960Z,1010.65
2018-06-09T00:54:59.940Z,1010.63
2018-06-09T00:55:59.919Z,1010.65
2018-06-09T00:56:59.897Z,1010.72
2018-06-09T00:57:59.878Z,1010.66
2018-06-09T00:58:59.860Z,1010.67
2018-06-09T00:59:59.836Z,1010.67
2018-06-09T01:00:59.812Z,1010.67
2018-06-09T01:01:59.792Z,1010.63
2018-06-09T01:02:59.798Z,1010.64
2018-06-09T01:03:59.750Z,1010.67
2018-06-09T01:04:59.729Z,1010.65
2018-06-09T01:05:59.708Z,1010.63
2018-06-09T01:06:59.689Z,1010.63
2018-06-09T01:07:59.668Z,1010.64
2018-06-09T01:08:59.648Z,1010.66
2018-06-09T01:09:59.622Z,1010.62
2018-06-09T01:10:59.603Z,1010.60
2018-06-09T01:11:59.584Z,1010.63
2018-06-09T01:12:59.560Z,1010.63
2018-06-09T01:13:59.539Z,1010.59
2018-06-09T01:14:59.522Z,1010.51
2018-06-09T01:15:59.498Z,1010.57
2018-06-09T01:16:59.476Z,1010.57
2018-06-09T01:17:59.454Z,1010.53
2018-06-09T01:18:59.435Z,1010.56
2018-06-09T01:19:59.414Z,1010.51
2018-06-09T01:20:59.392Z,1010.47
2018-06-09T01:21:59.371Z,1010.53
2018-06-09T01:22:59.350Z,1010.58
2018-06-09T01:23:59.331Z,1010.54
2018-06-09T01:24:59.306Z,1010.56
2018-06-09T01:25:59.287Z,1010.54
2018-06-09T01:26:59.264Z,1010.61
2018-06-09T01:27:59.248Z,1010.62
2018-06-09T01:28:59.224Z,1010.61
2018-06-09T01:29:59.203Z,1010.61
2018-06-09T01:30:59.182Z,1010.63
2018-06-09T01:31:59.162Z,1010.65
2018-06-09T01:32:59.141Z,1010.61
2018-06-09T01:33:59.118Z,1010.62
2018-06-09T01:34:59.097Z,1010.64
2018-06-09T01:35:59.078Z,1010.65
2018-06-09T01:36:59.056Z,1010.61
2018-06-09T01:37:59.034Z,1010.61
2018-06-09T01:38:59.014Z,1010.59
2018-06-09T01:39:58.996Z,1010.58
2018-06-09T01:40:58.971Z,1010.58
2018-06-09T01:41:58.950Z,1010.59
2018-06-09T01:42:58.928Z,1010.53
2018-06-09T01:43:58.909Z,1010.50
2018-06-09T01:44:58.887Z,1010.50
2018-06-09T01:45:58.866Z,1010.49
2018-06-09T01:46:58.846Z,1010.50
2018-06-09T01:47:58.824Z,1010.48
2018-06-09T01:48:58.802Z,1010.48
2018-06-09T01:49:58.783Z,1010.50
2018-06-09T01:50:58.763Z,1010.48
2018-06-09T01:51:58.741Z,1010.49
2018-06-09T01:52:58.720Z,1010.47
2018-06-09T01:53:58.706Z,1010.53
2018-06-09T01:54:58.678Z,1010.53
2018-06-09T01:55:58.658Z,1010.52
2018-06-09T01:56:58.637Z,1010.53
2018-06-09T01:57:58.615Z,1010.48
2018-06-09T01:58:58.594Z,1010.50
2018-06-09T01:59:58.574Z,1010.54
2018-06-09T02:00:58.554Z,1010.51
2018-06-09T02:01:58.532Z,1010.50
2018-06-09T02:02:58.511Z,1010.53
2018-06-09T02:03:58.498Z,1010.50
2018-06-09T02:04:58.469Z,1010.52
2018-06-09T02:05:58.449Z,1010.49
2018-06-09T02:06:58.428Z,1010.47
2018-06-09T02:07:58.408Z,1010.47
2018-06-09T02:08:58.391Z,1010.52
2018-06-09T02:09:58.367Z,1010.48
2018-06-09T02:10:58.346Z,1010.52
2018-06-09T02:11:58.324Z,1010.56
2018-06-09T02:12:58.307Z,1010.55
2018-06-09T02:13:58.281Z,1010.61
2018-06-09T02:14:58.264Z,1010.62
2018-06-09T02:15:58.241Z,1010.65
2018-06-09T02:16:58.224Z,1010.65
2018-06-09T02:17:58.198Z,1010.64
2018-06-09T02:18:58.183Z,1010.66
2018-06-09T02:19:58.158Z,1010.67
2018-06-09T02:20:58.134Z,1010.59
2018-06-09T02:21:58.115Z,1010.64
2018-06-09T02:22:58.093Z,1010.64
2018-06-09T02:23:58.074Z,1010.62
2018-06-09T02:24:58.055Z,1010.63
2018-06-09T02:25:58.030Z,1010.61
2018-06-09T02:26:58.010Z,1010.63
2018-06-09T02:27:57.989Z,1010.66
2018-06-09T02:28:57.967Z,1010.68
2018-06-09T02:29:57.948Z,1010.69
2018-06-09T02:30:57.926Z,1010.66
2018-06-09T02:31:57.905Z,1010.67
2018-06-09T02:32:57.887Z,1010.72
2018-06-09T02:33:57.863Z,1010.73
2018-06-09T02:34:57.842Z,1010.74
2018-06-09T02:35:57.826Z,1010.78
2018-06-09T02:36:57.804Z,1010.78
2018-06-09T02:37:57.778Z,1010.80
2018-06-09T02:38:57.758Z,1010.81
2018-06-09T02:39:57.742Z,1010.84
2018-06-09T02:40:57.716Z,1010.79
2018-06-09T02:41:57.697Z,1010.79
2018-06-09T02:42:57.674Z,1010.81
2018-06-09T02:43:57.661Z,1010.79
2018-06-09T02:44:57.631Z,1010.83
2018-06-09T02:45:57.611Z,1010.77
2018-06-09T02:46:57.590Z,1010.80
2018-06-09T02:47:57.568Z,1010.79
2018-06-09T02:48:58.100Z,1010.88
2018-06-09T02:49:57.527Z,1010.87
2018-06-09T02:50:57.511Z,1010.88
2018-06-09T02:51:57.485Z,1010.87
2018-06-09T02:52:57.463Z,1010.90
2018-06-09T02:53:57.442Z,1010.89
2018-06-09T02:54:57.428Z,1010.92
2018-06-09T02:55:57.417Z,1010.93
2018-06-09T02:56:57.382Z,1010.92
2018-06-09T02:57:57.359Z,1010.91
2018-06-09T02:58:57.338Z,1010.92
2018-06-09T02:59:57.317Z,1010.92
2018-06-09T03:00:57.296Z,1010.97
2018-06-09T03:01:57.275Z,1010.98
2018-06-09T03:02:57.259Z,1011.01
2018-06-09T03:03:57.237Z,1011.02
2018-06-09T03:04:57.211Z,1011.03
2018-06-09T03:05:57.194Z,1011.03
2018-06-09T03:06:57.170Z,1011.02
2018-06-09T03:07:57.152Z,1010.99
2018-06-09T03:08:57.128Z,1011.03
2018-06-09T03:09:57.109Z,1011.00
2018-06-09T03:10:57.086Z,1011.04
2018-06-09T03:11:57.066Z,1011.04
2018-06-09T03:12:57.044Z,1011.00
2018-06-09T03:13:57.027Z,1011.02
2018-06-09T03:14:57.002Z,1010.97
2018-06-09T03:15:56.981Z,1010.97
2018-06-09T03:16:56.962Z,1010.99
2018-06-09T03:17:56.942Z,1010.99
2018-06-09T03:18:56.923Z,1010.98
2018-06-09T03:19:56.915Z,1010.96
2018-06-09T03:20:56.878Z,1010.96
2018-06-09T03:21:56.858Z,1010.87
2018-06-09T03:22:56.839Z,1010.93
2018-06-09T03:23:56.818Z,1010.92
2018-06-09T03:24:56.792Z,1010.91
2018-06-09T03:25:56.772Z,1010.97
2018-06-09T03:26:56.751Z,1010.96
2018-06-09T03:27:56.731Z,1010.97
2018-06-09T03:28:56.710Z,1010.94
2018-06-09T03:29:56.689Z,1010.97
2018-06-09T03:30:56.670Z,1011.08
2018-06-09T03:31:56.648Z,1011.02
2018-06-09T03:32:56.626Z,1011.02
2018-06-09T03:33:56.609Z,1011.06
2018-06-09T03:34:56.585Z,1011.06
2018-06-09T03:35:56.565Z,1011.03
2018-06-09T03:36:56.542Z,1011.02
2018-06-09T03:37:56.528Z,1011.03
2018-06-09T03:38:56.501Z,1011.00
2018-06-09T03:39:56.481Z,1010.97
2018-06-09T03:40:56.462Z,1011.02
2018-06-09T03:41:56.439Z,1010.98
2018-06-09T03:42:56.418Z,1011.02
2018-06-09T03:43:56.397Z,1011.05
2018-06-09T03:44:56.376Z,1011.06
2018-06-09T03:45:56.356Z,1011.08
2018-06-09T03:46:56.336Z,1011.01
2018-06-09T03:47:56.314Z,1011.03
2018-06-09T03:48:56.318Z,1011.07
2018-06-09T03:49:56.279Z,1011.04
2018-06-09T03:50:56.255Z,1011.06
2018-06-09T03:51:56.236Z,1011.10
2018-06-09T03:52:56.212Z,1011.09
2018-06-09T03:53:56.192Z,1011.09
2018-06-09T03:54:56.175Z,1011.04
2018-06-09T03:55:56.152Z,1011.05
2018-06-09T03:56:56.129Z,1011.09
2018-06-09T03:57:56.113Z,1011.08
2018-06-09T03:58:56.090Z,1011.10
2018-06-09T03:59:56.221Z,1011.08
2018-06-09T04:00:56.050Z,1011.05
2018-06-09T04:01:56.030Z,1011.07
2018-06-09T04:02:56.011Z,1011.04
2018-06-09T04:03:55.989Z,1011.05
2018-06-09T04:04:55.968Z,1011.02
2018-06-09T04:05:55.949Z,1011.04
2018-06-09T04:06:55.930Z,1011.06
2018-06-09T04:07:55.912Z,1011.04
2018-06-09T04:08:55.899Z,1011.05
2018-06-09T04:09:55.874Z,1011.08
2018-06-09T04:10:55.853Z,1011.11
2018-06-09T04:11:55.829Z,1011.12
2018-06-09T04:12:55.809Z,1011.12
2018-06-09T04:13:55.792Z,1011.17
2018-06-09T04:14:55.771Z,1011.16
2018-06-09T04:15:55.750Z,1011.14
2018-06-09T04:16:55.732Z,1011.17
2018-06-09T04:17:55.708Z,1011.16
2018-06-09T04:18:55.696Z,1011.15
2018-06-09T04:19:55.673Z,1011.16
2018-06-09T04:20:55.649Z,1011.18
2018-06-09T04:21:55.632Z,1011.15
2018-06-09T04:22:55.611Z,1011.14
2018-06-09T04:23:55.594Z,1011.17
2018-06-09T04:24:55.570Z,1011.20
2018-06-09T04:25:55.554Z,1011.22
2018-06-09T04:26:55.531Z,1011.17
2018-06-09T04:27:55.520Z,1011.18
2018-06-09T04:28:55.490Z,1011.19
2018-06-09T04:29:55.473Z,1011.23
2018-06-09T04:30:55.455Z,1011.21
2018-06-09T04:31:55.436Z,1011.18
2018-06-09T04:32:55.413Z,1011.20
2018-06-09T04:33:55.414Z,1011.21
2018-06-09T04:34:55.374Z,1011.21
2018-06-09T04:35:55.353Z,1011.19
2018-06-09T04:36:55.334Z,1011.21
2018-06-09T04:37:55.315Z,1011.20
2018-06-09T04:38:55.302Z,1011.20
2018-06-09T04:39:55.289Z,1011.17
2018-06-09T04:40:55.259Z,1011.20
2018-06-09T04:41:55.236Z,1011.20
2018-06-09T04:42:55.217Z,1011.19
2018-06-09T04:43:55.197Z,1011.18
2018-06-09T04:44:55.176Z,1011.21
2018-06-09T04:45:55.159Z,1011.22
2018-06-09T04:46:55.137Z,1011.20
2018-06-09T04:47:55.118Z,1011.18
2018-06-09T04:48:55.100Z,1011.24
2018-06-09T04:49:55.078Z,1011.26
2018-06-09T04:50:55.059Z,1011.22
2018-06-09T04:51:55.039Z,1011.26
2018-06-09T04:52:55.022Z,1011.18
2018-06-09T04:53:55.002Z,1011.19
2018-06-09T04:54:54.979Z,1011.17
2018-06-09T04:55:54.959Z,1011.14
2018-06-09T04:56:54.939Z,1011.13
2018-06-09T04:57:54.920Z,1011.11
2018-06-09T04:58:54.900Z,1011.11
2018-06-09T04:59:54.887Z,1011.13
2018-06-09T05:00:54.858Z,1011.10
2018-06-09T05:01:54.840Z,1011.09
2018-06-09T05:02:54.819Z,1011.08
2018-06-09T05:03:54.805Z,1011.12
2018-06-09T05:04:54.779Z,1011.11
2018-06-09T05:05:54.759Z,1011.09
2018-06-09T05:06:54.747Z,1011.10
2018-06-09T05:07:54.720Z,1011.10
2018-06-09T05:08:54.700Z,1011.07
2018-06-09T05:09:54.683Z,1011.08
2018-06-09T05:10:54.660Z,1011.10
2018-06-09T05:11:54.641Z,1011.08
2018-06-09T05:12:54.628Z,1011.04
2018-06-09T05:13:54.601Z,1011.05
2018-06-09T05:14:54.581Z,1011.02
2018-06-09T05:15:54.561Z,1011.06
2018-06-09T05:16:54.540Z,1011.01
2018-06-09T05:17:54.521Z,1011.02
2018-06-09T05:18:54.511Z,1011.05
2018-06-09T05:19:54.484Z,1011.03
2018-06-09T05:20:54.461Z,1011.05
2018-06-09T05:21:54.441Z,1011.04
2018-06-09T05:22:54.421Z,1011.01
2018-06-09T05:23:54.401Z,1011.01
2018-06-09T05:24:54.380Z,1011.04
2018-06-09T05:25:54.368Z,1011.08
2018-06-09T05:26:54.341Z,1011.05
2018-06-09T05:27:54.325Z,1011.06
2018-06-09T05:28:54.301Z,1011.08
2018-06-09T05:29:54.288Z,1011.11
2018-06-09T05:30:54.262Z,1011.07
2018-06-09T05:31:54.240Z,1011.09
2018-06-09T05:32:54.222Z,1011.08
2018-06-09T05:33:54.200Z,1011.10
2018-06-09T05:34:54.181Z,1011.06
2018-06-09T05:35:54.160Z,1011.11
2018-06-09T05:36:54.139Z,1011.17
2018-06-09T05:37:54.120Z,1011.16
2018-06-09T05:38:54.100Z,1011.14
2018-06-09T05:39:54.080Z,1011.17
2018-06-09T05:40:54.059Z,1011.16
2018-06-09T05:41:54.041Z,1011.18
2018-06-09T05:42:54.046Z,1011.17
2018-06-09T05:43:53.998Z,1011.16
2018-06-09T05:44:53.979Z,1011.15
2018-06-09T05:45:54.858Z,1011.13
2018-06-09T05:46:53.940Z,1011.15
2018-06-09T05:47:53.916Z,1011.15
2018-06-09T05:48:53.904Z,1011.15
2018-06-09T05:49:53.875Z,1011.14
2018-06-09T05:50:53.860Z,1011.20
2018-06-09T05:51:53.835Z,1011.21
2018-06-09T05:52:53.813Z,1011.22
2018-06-09T05:53:53.795Z,1011.25
2018-06-09T05:54:53.774Z,1011.27
2018-06-09T05:55:53.754Z,1011.29
2018-06-09T05:56:53.733Z,1011.29
2018-06-09T05:57:53.711Z,1011.33
2018-06-09T05:58:53.692Z,1011.35
2018-06-09T05:59:53.676Z,1011.35
2018-06-09T06:00:53.652Z,1011.38
2018-06-09T06:01:53.630Z,1011.45
2018-06-09T06:02:53.608Z,1011.43
2018-06-09T06:03:53.593Z,1011.45
2018-06-09T06:04:53.572Z,1011.49
2018-06-09T06:05:53.549Z,1011.51
2018-06-09T06:06:53.528Z,1011.51
2018-06-09T06:07:53.508Z,1011.54
2018-06-09T06:08:53.686Z,1011.54
2018-06-09T06:09:53.499Z,1011.57
2018-06-09T06:10:53.446Z,1011.60
2018-06-09T06:11:53.426Z,1011.57
2018-06-09T06:12:53.405Z,1011.62
2018-06-09T06:13:53.384Z,1011.66
2018-06-09T06:14:53.364Z,1011.60
2018-06-09T06:15:53.342Z,1011.62
2018-06-09T06:16:53.323Z,1011.64
2018-06-09T06:17:53.302Z,1011.61
2018-06-09T06:18:53.324Z,1011.67
2018-06-09T06:19:53.262Z,1011.68
2018-06-09T06:20:53.244Z,1011.67
2018-06-09T06:21:53.220Z,1011.67
2018-06-09T06:22:53.204Z,1011.67
2018-06-09T06:23:53.182Z,1011.72
2018-06-09T06:24:53.159Z,1011.71
2018-06-09T06:25:53.139Z,1011.71
2018-06-09T06:26:53.122Z,1011.69
2018-06-09T06:27:53.099Z,1011.72
2018-06-09T06:28:53.079Z,1011.73
2018-06-09T06:29:53.057Z,1011.71
2018-06-09T06:30:53.037Z,1011.72
2018-06-09T06:31:53.028Z,1011.73
2018-06-09T06:32:52.996Z,1011.75
2018-06-09T06:33:52.977Z,1011.75
2018-06-09T06:34:52.959Z,1011.75
2018-06-09T06:35:52.935Z,1011.73
2018-06-09T06:36:52.919Z,1011.76
2018-06-09T06:37:52.893Z,1011.76
2018-06-09T06:38:52.880Z,1011.74
2018-06-09T06:39:52.854Z,1011.73
2018-06-09T06:40:52.836Z,1011.72
2018-06-09T06:41:52.813Z,1011.73
2018-06-09T06:42:52.791Z,1011.74
2018-06-09T06:43:52.773Z,1011.76
2018-06-09T06:44:52.750Z,1011.75
2018-06-09T06:45:52.730Z,1011.71
2018-06-09T06:46:52.709Z,1011.72
2018-06-09T06:47:52.690Z,1011.70
2018-06-09T06:48:52.669Z,1011.78
2018-06-09T06:49:52.798Z,1011.80
2018-06-09T06:50:52.629Z,1011.81
2018-06-09T06:51:52.611Z,1011.76
2018-06-09T06:52:52.587Z,1011.79
2018-06-09T06:53:52.569Z,1011.82
2018-06-09T06:54:52.547Z,1011.77
2018-06-09T06:55:52.528Z,1011.78
2018-06-09T06:56:52.508Z,1011.76
2018-06-09T06:57:52.486Z,1011.80
2018-06-09T06:58:52.472Z,1011.81
2018-06-09T06:59:52.447Z,1011.81
2018-06-09T07:00:52.425Z,1011.83
2018-06-09T07:01:52.406Z,1011.81
2018-06-09T07:02:52.386Z,1011.83
2018-06-09T07:03:52.368Z,1011.83
2018-06-09T07:04:52.347Z,1011.82
2018-06-09T07:05:52.325Z,1011.86
2018-06-09T07:06:52.309Z,1011.89
2018-06-09T07:07:52.318Z,1011.87
2018-06-09T07:08:52.263Z,1011.85
2018-06-09T07:09:52.245Z,1011.92
2018-06-09T07:10:52.226Z,1011.93
2018-06-09T07:11:52.206Z,1011.91
2018-06-09T07:12:52.191Z,1011.94
2018-06-09T07:13:52.165Z,1011.97
2018-06-09T07:14:52.153Z,1011.99
2018-06-09T07:15:52.125Z,1011.99
2018-06-09T07:16:52.106Z,1012.00
2018-06-09T07:17:52.085Z,1012.02
2018-06-09T07:18:52.065Z,1012.04
2018-06-09T07:19:52.046Z,1012.05
2018-06-09T07:20:52.026Z,1012.05
2018-06-09T07:21:52.006Z,1012.01
2018-06-09T07:22:51.986Z,1012.03
2018-06-09T07:23:52.171Z,1012.08
2018-06-09T07:24:51.946Z,1012.09
2018-06-09T07:25:51.931Z,1012.09
2018-06-09T07:26:51.907Z,1012.10
2018-06-09T07:27:51.889Z,1012.09
2018-06-09T07:28:51.868Z,1012.12
2018-06-09T07:29:51.849Z,1012.10
2018-06-09T07:30:52.033Z,1012.17
2018-06-09T07:31:51.811Z,1012.17
2018-06-09T07:32:51.791Z,1012.20
2018-06-09T07:33:51.772Z,1012.21
2018-06-09T07:34:51.754Z,1012.23
2018-06-09T07:35:51.737Z,1012.21
2018-06-09T07:36:51.713Z,1012.22
2018-06-09T07:37:51.694Z,1012.22
2018-06-09T07:38:51.675Z,1012.28
2018-06-09T07:39:51.656Z,1012.30
2018-06-09T07:40:51.839Z,1012.27
2018-06-09T07:41:51.621Z,1012.26
2018-06-09T07:42:51.599Z,1012.29
2018-06-09T07:43:51.583Z,1012.33
2018-06-09T07:44:51.561Z,1012.38
2018-06-09T07:45:51.543Z,1012.38
2018-06-09T07:46:51.526Z,1012.45
2018-06-09T07:47:51.513Z,1012.58
2018-06-09T07:48:51.487Z,1012.52
2018-06-09T07:49:51.672Z,1012.48
2018-06-09T07:50:51.653Z,1012.46
2018-06-09T07:51:51.445Z,1012.54
2018-06-09T07:52:51.414Z,1012.56
2018-06-09T07:53:51.396Z,1012.55
2018-06-09T07:54:51.378Z,1012.63
2018-06-09T07:55:51.368Z,1012.61
2018-06-09T07:56:51.549Z,1012.59
2018-06-09T07:57:51.528Z,1012.63
2018-06-09T07:58:51.309Z,1012.65
2018-06-09T07:59:51.292Z,1012.72
2018-06-09T08:00:51.425Z,1012.73
2018-06-09T08:01:51.459Z,1012.76
2018-06-09T08:02:51.448Z,1012.92
2018-06-09T08:03:51.830Z,1012.96
2018-06-09T08:04:51.206Z,1012.88
2018-06-09T08:05:54.278Z,1012.89
2018-06-09T08:06:54.012Z,1012.86
2018-06-09T08:07:51.359Z,1012.86
2018-06-09T08:08:51.139Z,1012.90
2018-06-09T08:09:51.135Z,1013.06
2018-06-09T08:10:51.108Z,1013.04
2018-06-09T08:11:51.094Z,1013.06
2018-06-09T08:12:51.075Z,1012.94
2018-06-09T08:13:51.265Z,1012.95
2018-06-09T08:14:51.247Z,1013.17
2018-06-09T08:15:51.234Z,1013.36
2018-06-09T08:16:51.215Z,1013.48
2018-06-09T08:17:51.199Z,1013.29
2018-06-09T08:18:51.185Z,1013.24
2018-06-09T08:19:50.970Z,1013.60
2018-06-09T08:20:51.154Z,1013.64
2018-06-09T08:21:50.938Z,1013.37
2018-06-09T08:22:51.125Z,1013.58
2018-06-09T08:23:51.112Z,1013.29
2018-06-09T08:24:51.096Z,1013.16
2018-06-09T08:25:51.081Z,1013.10
2018-06-09T08:26:51.069Z,1013.23
2018-06-09T08:27:50.854Z,1013.57
2018-06-09T08:28:50.843Z,1013.23
2018-06-09T08:29:50.826Z,1013.38
2018-06-09T08:30:53.645Z,1013.30
2018-06-09T08:31:51.003Z,1013.07
2018-06-09T08:32:50.988Z,1013.02
2018-06-09T08:33:50.975Z,1013.28
2018-06-09T08:34:51.772Z,1013.38
2018-06-09T08:35:50.751Z,1013.44
2018-06-09T08:36:50.937Z,1013.48
2018-06-09T08:37:50.723Z,1013.39
2018-06-09T08:38:51.520Z,1013.40
2018-06-09T08:39:52.116Z,1013.44
2018-06-09T08:40:50.888Z,1013.08
2018-06-09T08:41:50.673Z,1012.95
2018-06-09T08:42:50.864Z,1012.83
2018-06-09T08:43:50.650Z,1012.96
2018-06-09T08:44:50.639Z,1013.32
2018-06-09T08:45:50.626Z,1013.12
2018-06-09T08:46:50.825Z,1013.04
2018-06-09T08:47:50.601Z,1013.22
2018-06-09T08:48:50.590Z,1012.90
2018-06-09T08:49:50.578Z,1013.15
2018-06-09T08:50:50.771Z,1013.34
2018-06-09T08:51:50.555Z,1013.13
2018-06-09T08:52:50.542Z,1012.75
2018-06-09T08:53:50.531Z,1012.70
2018-06-09T08:54:50.533Z,1012.71
2018-06-09T08:55:50.508Z,1012.66
2018-06-09T08:56:50.509Z,1012.62
2018-06-09T08:57:50.483Z,1012.59
2018-06-09T08:58:50.470Z,1012.64
2018-06-09T08:59:50.458Z,1012.69
2018-06-09T09:00:50.447Z,1012.73
2018-06-09T09:01:50.435Z,1012.76
2018-06-09T09:02:50.429Z,1012.74
2018-06-09T09:03:50.410Z,1012.88
2018-06-09T09:04:50.550Z,1012.90
2018-06-09T09:05:50.389Z,1012.63
2018-06-09T09:06:50.373Z,1012.45
2018-06-09T09:07:50.361Z,1012.43
2018-06-09T09:08:50.354Z,1012.42
2018-06-09T09:09:50.542Z,1012.47
2018-06-09T09:11:36.117Z,1012.44
2018-06-09T09:12:33.482Z,1012.46
2018-06-09T09:13:32.661Z,1012.86
2018-06-09T09:14:32.650Z,1012.74
2018-06-09T09:15:32.432Z,1012.67
2018-06-09T09:16:33.085Z,1013.15
2018-06-09T09:17:32.608Z,1013.20
2018-06-09T09:18:32.393Z,1013.25
2018-06-09T09:19:32.384Z,1013.19
2018-06-09T09:20:32.367Z,1013.01
2018-06-09T09:21:35.182Z,1013.15
2018-06-09T09:22:32.545Z,1013.14
2018-06-09T09:24:17.318Z,1013.22
2018-06-09T09:25:14.682Z,1013.04
2018-06-09T09:26:14.468Z,1013.23
2018-06-09T09:27:14.659Z,1013.22
2018-06-09T09:28:14.450Z,1013.02
2018-06-09T09:29:14.635Z,1013.12
2018-06-09T09:30:14.627Z,1013.15
2018-06-09T09:31:14.617Z,1013.05
2018-06-09T09:32:14.459Z,1013.03
2018-06-09T09:33:14.386Z,1013.09
2018-06-09T09:34:14.376Z,1013.01
2018-06-09T09:35:14.567Z,1013.07
2018-06-09T09:36:14.354Z,1013.13
2018-06-09T09:37:14.549Z,1012.97
2018-06-09T09:38:14.537Z,1013.05
2018-06-09T09:39:14.320Z,1013.08
2018-06-09T09:40:14.309Z,1012.94
2018-06-09T09:41:14.299Z,1013.06
2018-06-09T09:42:14.488Z,1013.05
2018-06-09T09:43:14.276Z,1013.16
2018-06-09T09:44:14.469Z,1013.04
2018-06-09T09:45:14.253Z,1013.11
2018-06-09T09:46:14.293Z,1013.11
2018-06-09T09:47:14.431Z,1012.99
2018-06-09T09:48:14.221Z,1013.08
2018-06-09T09:49:14.207Z,1013.10
2018-06-09T09:50:56.561Z,1012.98
2018-06-09T09:51:56.347Z,1013.03
2018-06-09T09:52:56.335Z,1012.94
2018-06-09T09:53:56.529Z,1012.80
2018-06-09T09:54:56.568Z,1012.95
2018-06-09T09:55:56.505Z,1012.78
2018-06-09T09:56:56.298Z,1012.75
2018-06-09T09:57:56.283Z,1012.90
2018-06-09T09:58:56.269Z,1012.73
2018-06-09T09:59:56.257Z,1012.80
2018-06-09T10:00:56.448Z,1012.98
2018-06-09T10:01:56.235Z,1012.86
2018-06-09T10:02:56.239Z,1012.89
2018-06-09T10:03:56.212Z,1012.85
2018-06-09T10:04:56.357Z,1012.89
2018-06-09T10:05:56.191Z,1012.96
2018-06-09T10:06:56.182Z,1012.93
2018-06-09T10:07:56.169Z,1012.97
2018-06-09T10:08:56.164Z,1012.95
2018-06-09T10:09:56.148Z,1012.96
2018-06-09T10:10:56.135Z,1012.99
2018-06-09T10:11:56.328Z,1012.96
2018-06-09T10:12:56.316Z,1013.02
2018-06-09T10:13:59.736Z,1013.04
2018-06-09T10:14:56.296Z,1013.05
2018-06-09T10:15:56.284Z,1013.10
2018-06-09T10:18:20.602Z,1013.13
2018-06-09T10:19:20.599Z,1013.14
2018-06-09T10:20:20.580Z,1013.17
2018-06-09T10:21:20.369Z,1013.17
2018-06-09T10:22:20.363Z,1013.07
2018-06-09T10:23:20.350Z,1013.09
2018-06-09T10:24:20.341Z,1012.97
2018-06-09T10:25:20.335Z,1013.02
2018-06-09T10:26:20.324Z,1012.88
2018-06-09T10:27:20.315Z,1012.89
2018-06-09T10:28:20.304Z,1012.90
2018-06-09T10:29:20.296Z,1012.90
2018-06-09T10:30:20.285Z,1012.88
2018-06-09T10:31:20.277Z,1012.82
2018-06-09T10:32:20.266Z,1012.81
2018-06-09T10:33:20.259Z,1012.81
2018-06-09T10:34:20.250Z,1012.76
2018-06-09T10:35:20.236Z,1012.74
2018-06-09T10:36:20.377Z,1012.78
2018-06-09T10:37:20.218Z,1012.71
2018-06-09T10:38:20.208Z,1012.64
2018-06-09T10:39:20.197Z,1012.68
2018-06-09T10:40:20.186Z,1012.80
2018-06-09T10:41:20.176Z,1012.73
2018-06-09T10:42:20.175Z,1012.80
2018-06-09T10:43:20.154Z,1012.77
2018-06-09T10:44:20.143Z,1012.76
2018-06-09T10:45:20.141Z,1012.83
2018-06-09T10:46:20.125Z,1012.99
2018-06-09T10:47:20.111Z,1012.75
2018-06-09T10:48:20.100Z,1012.78
2018-06-09T10:49:20.088Z,1012.71
2018-06-09T10:50:20.079Z,1012.72
2018-06-09T10:51:20.073Z,1012.65
2018-06-09T10:52:20.056Z,1012.63
2018-06-09T10:53:20.048Z,1012.67
2018-06-09T10:54:20.040Z,1012.70
2018-06-09T10:55:20.023Z,1012.66
2018-06-09T10:56:20.013Z,1012.71
2018-06-09T10:57:20.004Z,1012.83
2018-06-09T10:58:19.993Z,1012.61
2018-06-09T10:59:19.979Z,1012.71
2018-06-09T11:00:19.970Z,1012.45
2018-06-09T11:01:19.958Z,1012.51
2018-06-09T11:02:19.952Z,1012.41
2018-06-09T11:03:19.937Z,1012.54
2018-06-09T11:04:19.925Z,1012.46
2018-06-09T11:05:19.913Z,1012.47
2018-06-09T11:06:19.903Z,1012.68
2018-06-09T11:07:19.892Z,1012.42
2018-06-09T11:08:19.879Z,1012.40
2018-06-09T11:09:19.876Z,1012.48
2018-06-09T11:10:19.858Z,1012.42
2018-06-09T11:11:19.849Z,1012.39
2018-06-09T11:12:20.035Z,1012.39
2018-06-09T11:13:20.229Z,1012.39
2018-06-09T11:14:19.812Z,1012.41
2018-06-09T11:15:19.801Z,1012.50
2018-06-09T11:16:19.789Z,1012.55
2018-06-09T11:17:19.781Z,1012.53
2018-06-09T11:18:19.812Z,1012.30
2018-06-09T11:19:19.754Z,1012.32
2018-06-09T11:20:19.753Z,1012.50
2018-06-09T11:21:19.734Z,1012.56
2018-06-09T11:22:19.720Z,1012.56
2018-06-09T11:23:19.706Z,1012.73
2018-06-09T11:24:19.704Z,1012.84
2018-06-09T11:25:19.688Z,1012.47
2018-06-09T11:26:19.676Z,1012.35
2018-06-09T11:27:19.665Z,1012.36
2018-06-09T11:28:19.655Z,1012.70
2018-06-09T11:29:19.641Z,1012.66
2018-06-09T11:30:19.630Z,1012.58
2018-06-09T11:31:19.618Z,1012.53
2018-06-09T11:32:19.611Z,1012.56
2018-06-09T11:33:19.597Z,1012.85
2018-06-09T11:34:19.593Z,1012.84
2018-06-09T11:35:19.577Z,1012.80
2018-06-09T11:36:19.564Z,1012.74
2018-06-09T11:37:19.553Z,1012.75
2018-06-09T11:38:19.542Z,1012.69
2018-06-09T11:39:19.532Z,1012.44
2018-06-09T11:40:19.522Z,1012.40
2018-06-09T11:41:19.511Z,1012.53
2018-06-09T11:42:19.502Z,1012.55
2018-06-09T11:43:19.493Z,1012.56
2018-06-09T11:44:19.480Z,1012.44
2018-06-09T11:45:19.477Z,1012.56
2018-06-09T11:46:19.462Z,1012.54
2018-06-09T11:47:19.652Z,1012.57
2018-06-09T11:48:19.441Z,1012.52
2018-06-09T11:49:19.432Z,1012.57
2018-06-09T11:50:19.421Z,1012.61
2018-06-09T11:51:19.411Z,1012.52
2018-06-09T11:52:19.401Z,1012.53
2018-06-09T11:53:19.391Z,1012.53
2018-06-09T11:54:19.381Z,1012.50
2018-06-09T11:55:19.371Z,1012.46
2018-06-09T11:56:19.365Z,1012.47
2018-06-09T11:57:19.351Z,1012.54
2018-06-09T11:58:19.345Z,1012.47
2018-06-09T11:59:19.330Z,1012.41
2018-06-09T12:00:19.323Z,1012.42
2018-06-09T12:01:19.311Z,1012.40
2018-06-09T12:02:19.300Z,1012.45
2018-06-09T12:03:19.289Z,1012.48
2018-06-09T12:04:19.293Z,1012.51
2018-06-09T12:05:19.269Z,1012.63
2018-06-09T12:06:19.264Z,1012.64
2018-06-09T12:07:19.249Z,1012.62
2018-06-09T12:08:19.284Z,1012.64
2018-06-09T12:09:19.231Z,1012.74